Time;durP1;ratioP1;P1;durP2;ratioP2;P2;SDS_P1;SDS_P2;PMS_P1;PMS_P2;Temp;Humidity;BMP_temperature;BMP_pressure;BME280_temperature;BME280_humidity;BME280_pressure;Samples;Min_cycle;Max_cycle;Signal;HPM_P1;HPM_P2
2023/08/30 00:01:04;;;;;;;6.18;4.25;;;15.70;92.50;;;;;;4982724;28;20026;-78
2023/08/30 00:03:30;;;;;;;8.48;6.15;;;15.80;93.00;;;;;;5002318;28;20036;-78
2023/08/30 00:05:55;;;;;;;3.55;3.15;;;15.60;92.40;;;;;;4987260;28;20613;-78
2023/08/30 00:08:21;;;;;;;7.35;6.18;;;15.40;92.80;;;;;;4970463;28;20497;-78
2023/08/30 00:10:47;;;;;;;4.22;3.75;;;15.50;93.10;;;;;;4987467;28;21462;-78
2023/08/30 00:13:12;;;;;;;6.85;4.78;;;15.40;93.10;;;;;;4983660;28;20022;-78
2023/08/30 00:15:38;;;;;;;12.40;7.47;;;15.40;93.10;;;;;;4987836;28;20037;-79
2023/08/30 00:18:03;;;;;;;9.07;5.65;;;15.30;93.00;;;;;;4970459;28;20052;-78
2023/08/30 00:20:29;;;;;;;5.15;4.43;;;15.30;93.60;;;;;;4968467;28;20626;-78
2023/08/30 00:22:55;;;;;;;5.78;5.20;;;15.30;93.60;;;;;;4996370;28;20273;-78
2023/08/30 00:25:20;;;;;;;15.10;6.28;;;15.40;93.70;;;;;;4983328;28;20646;-78
2023/08/30 00:27:46;;;;;;;7.07;4.82;;;15.20;93.40;;;;;;4985510;28;20557;-78
2023/08/30 00:30:12;;;;;;;3.50;3.17;;;15.20;93.50;;;;;;4968451;28;20363;-78
2023/08/30 00:32:37;;;;;;;7.57;5.95;;;15.10;93.70;;;;;;4998703;28;20091;-78
2023/08/30 00:35:03;;;;;;;9.25;7.05;;;15.30;93.60;;;;;;4979480;28;20038;-79
2023/08/30 00:37:28;;;;;;;6.28;4.65;;;15.10;93.40;;;;;;4986017;28;20044;-78
2023/08/30 00:39:54;;;;;;;7.78;6.22;;;15.10;93.80;;;;;;4970818;28;20041;-78
2023/08/30 00:42:20;;;;;;;8.10;6.28;;;15.10;94.00;;;;;;4998349;28;20049;-78
2023/08/30 00:44:46;;;;;;;4.80;4.13;;;15.20;94.90;;;;;;4987684;28;20588;-78
2023/08/30 00:47:11;;;;;;;8.30;7.30;;;15.20;94.20;;;;;;5001022;28;20026;-78
2023/08/30 00:49:37;;;;;;;6.07;4.78;;;14.90;94.00;;;;;;4983312;28;20042;-79
2023/08/30 00:52:05;;;;;;;8.10;4.95;;;15.00;94.40;;;;;;5015710;28;20042;-78
2023/08/30 00:54:31;;;;;;;11.45;6.43;;;15.00;94.40;;;;;;4984364;28;20117;-78
2023/08/30 00:56:56;;;;;;;6.80;5.72;;;15.00;94.50;;;;;;4998335;28;20153;-78
2023/08/30 00:59:22;;;;;;;5.63;5.05;;;14.80;94.60;;;;;;4972341;28;20061;-78
2023/08/30 01:01:48;;;;;;;11.07;5.57;;;14.80;94.70;;;;;;4984776;28;20054;-78
2023/08/30 01:04:14;;;;;;;6.60;5.80;;;15.00;95.00;;;;;;4998106;28;20044;-77
2023/08/30 01:06:39;;;;;;;7.47;6.45;;;14.90;94.90;;;;;;4986053;28;20037;-77
2023/08/30 01:09:05;;;;;;;9.98;6.72;;;14.90;94.90;;;;;;4985337;28;20073;-78
2023/08/30 01:11:43;;;;;;;6.20;5.60;;;14.80;94.80;;;;;;4999934;28;20801;-78
2023/08/30 01:14:13;;;;;;;6.28;5.45;;;14.70;94.80;;;;;;5018291;28;20064;-78
2023/08/30 01:16:38;;;;;;;8.07;6.18;;;14.50;95.10;;;;;;4982176;28;20103;-78
2023/08/30 01:19:13;;;;;;;6.10;5.50;;;14.70;95.30;;;;;;4983731;28;20473;-77
2023/08/30 01:21:49;;;;;;;5.80;4.75;;;14.40;95.00;;;;;;5003467;28;20055;-78
2023/08/30 01:24:23;;;;;;;10.52;6.07;;;14.60;95.80;;;;;;5002850;28;20493;-78
2023/08/30 01:27:00;;;;;;;8.55;6.72;;;14.50;95.40;;;;;;4969285;28;20030;-78
2023/08/30 01:29:25;;;;;;;7.95;7.15;;;14.30;95.10;;;;;;5001716;28;20080;-78
2023/08/30 01:31:51;;;;;;;13.63;10.45;;;14.20;95.60;;;;;;5001240;28;20485;-78
2023/08/30 01:34:16;;;;;;;14.45;11.15;;;14.20;95.40;;;;;;4981237;28;20493;-79
2023/08/30 01:36:42;;;;;;;15.32;12.35;;;14.00;96.20;;;;;;4983609;28;20489;-78
2023/08/30 01:39:10;;;;;;;15.25;12.43;;;13.90;95.70;;;;;;4969591;28;20034;-78
2023/08/30 01:41:36;;;;;;;17.05;13.38;;;13.80;96.30;;;;;;4971768;28;20505;-78
2023/08/30 01:44:03;;;;;;;21.20;14.35;;;13.70;95.90;;;;;;4996416;28;20030;-77
2023/08/30 01:46:29;;;;;;;19.58;13.68;;;13.60;96.10;;;;;;4994866;28;20037;-77
2023/08/30 01:48:55;;;;;;;15.82;12.77;;;13.50;96.80;;;;;;4999944;28;20041;-78
2023/08/30 01:51:20;;;;;;;19.00;13.68;;;13.50;96.50;;;;;;5000829;28;20026;-78
2023/08/30 01:53:46;;;;;;;17.42;13.63;;;13.50;98.80;;;;;;4998739;28;20116;-77
2023/08/30 01:56:11;;;;;;;21.35;13.93;;;13.40;98.80;;;;;;4983844;28;20057;-77
2023/08/30 01:58:37;;;;;;;16.90;13.27;;;13.40;99.20;;;;;;4984533;28;20041;-77
2023/08/30 02:01:02;;;;;;;23.55;14.10;;;13.30;97.60;;;;;;4999464;28;20042;-78
2023/08/30 02:03:28;;;;;;;17.92;12.90;;;13.20;99.10;;;;;;4986554;28;20033;-78
2023/08/30 02:06:13;;;;;;;17.38;11.48;;;13.30;98.10;;;;;;4998329;28;20029;-78
2023/08/30 02:08:41;;;;;;;21.02;14.25;;;13.50;98.00;;;;;;4986157;28;20046;-78
2023/08/30 02:11:22;;;;;;;17.45;15.00;;;13.30;99.90;;;;;;4983886;28;20525;-78
2023/08/30 02:13:47;;;;;;;21.85;16.70;;;13.30;99.90;;;;;;4997146;28;20052;-78
2023/08/30 02:16:13;;;;;;;15.13;12.05;;;13.10;99.90;;;;;;4971079;28;20448;-78
2023/08/30 02:18:39;;;;;;;20.60;15.85;;;13.20;99.90;;;;;;4994894;28;20083;-78
2023/08/30 02:21:04;;;;;;;20.02;15.45;;;13.20;99.80;;;;;;4968485;28;20129;-78
2023/08/30 02:23:30;;;;;;;15.63;12.55;;;13.10;99.80;;;;;;4982245;28;20052;-78
2023/08/30 02:25:55;;;;;;;21.65;15.25;;;13.20;99.40;;;;;;4972655;28;20033;-78
2023/08/30 02:28:21;;;;;;;19.20;16.08;;;13.20;99.40;;;;;;4970373;28;20041;-78
2023/08/30 02:30:46;;;;;;;22.27;16.15;;;13.10;99.90;;;;;;5000484;28;20552;-78
2023/08/30 02:33:12;;;;;;;14.25;10.57;;;13.00;99.90;;;;;;5001172;28;20101;-77
2023/08/30 02:35:37;;;;;;;13.15;9.15;;;13.00;99.90;;;;;;5003275;28;20057;-77
2023/08/30 02:38:04;;;;;;;15.25;12.82;;;13.10;99.90;;;;;;4985381;28;20112;-78
2023/08/30 02:40:31;;;;;;;18.38;13.40;;;13.20;99.50;;;;;;4981901;28;20072;-78
2023/08/30 02:42:57;;;;;;;10.60;8.63;;;13.10;99.40;;;;;;4996843;28;20497;-78
2023/08/30 02:45:22;;;;;;;16.60;13.55;;;13.00;99.50;;;;;;4981570;28;20088;-77
2023/08/30 02:47:48;;;;;;;17.85;13.93;;;13.00;99.30;;;;;;4986571;28;20042;-78
2023/08/30 02:50:13;;;;;;;21.75;15.93;;;12.80;99.90;;;;;;5001664;28;20069;-78
2023/08/30 02:52:39;;;;;;;22.38;17.20;;;12.70;99.90;;;;;;4983409;28;20729;-77
2023/08/30 02:55:05;;;;;;;25.05;17.60;;;12.60;99.90;;;;;;4967251;28;20544;-77
2023/08/30 02:57:31;;;;;;;22.52;17.50;;;12.60;99.90;;;;;;4981909;28;20144;-77
2023/08/30 02:59:56;;;;;;;19.25;13.20;;;12.60;99.90;;;;;;4987509;28;20152;-78
2023/08/30 03:02:22;;;;;;;18.27;15.07;;;12.60;99.90;;;;;;4991486;28;20034;-79
2023/08/30 03:04:47;;;;;;;20.80;16.02;;;12.60;99.90;;;;;;4986278;28;20608;-78
2023/08/30 03:07:13;;;;;;;12.13;9.55;;;12.60;99.90;;;;;;4968416;28;20087;-78
2023/08/30 03:09:39;;;;;;;22.85;16.67;;;12.60;99.90;;;;;;4988562;28;20044;-79
2023/08/30 03:12:05;;;;;;;11.88;9.55;;;12.60;99.90;;;;;;4989095;28;20022;-79
2023/08/30 03:14:30;;;;;;;20.42;15.98;;;12.70;99.90;;;;;;4970450;28;20064;-78
2023/08/30 03:16:56;;;;;;;20.13;16.10;;;12.70;99.90;;;;;;4988817;28;20401;-79
2023/08/30 03:19:21;;;;;;;10.70;9.07;;;12.60;99.90;;;;;;5004035;28;20497;-78
2023/08/30 03:21:47;;;;;;;23.38;15.35;;;12.70;99.90;;;;;;4990269;28;20511;-78
2023/08/30 03:24:13;;;;;;;23.85;17.08;;;12.80;99.90;;;;;;4982519;28;20832;-78
2023/08/30 03:26:40;;;;;;;26.90;19.08;;;12.60;99.90;;;;;;5003444;28;20413;-78
2023/08/30 03:29:06;;;;;;;22.23;16.08;;;12.50;99.90;;;;;;4973632;28;20906;-78
2023/08/30 03:31:31;;;;;;;22.98;15.15;;;12.50;99.90;;;;;;5002257;28;20034;-78
2023/08/30 03:33:57;;;;;;;20.33;13.77;;;12.50;99.90;;;;;;4989133;28;20393;-79
2023/08/30 03:36:23;;;;;;;22.02;15.07;;;12.50;99.90;;;;;;4987659;28;20030;-78
2023/08/30 03:38:48;;;;;;;26.70;18.77;;;12.50;99.90;;;;;;4970731;28;20497;-79
2023/08/30 03:41:14;;;;;;;27.25;18.83;;;12.40;99.90;;;;;;5003378;28;20109;-78
2023/08/30 03:43:39;;;;;;;26.70;19.13;;;12.30;99.90;;;;;;4986193;28;20033;-79
2023/08/30 03:46:05;;;;;;;29.35;20.98;;;12.20;99.90;;;;;;5001328;28;20439;-79
2023/08/30 03:48:31;;;;;;;26.63;19.40;;;12.20;99.90;;;;;;5004955;28;20402;-78
2023/08/30 03:50:56;;;;;;;29.67;20.63;;;12.00;99.90;;;;;;4997293;28;20021;-79
2023/08/30 03:53:22;;;;;;;19.45;14.02;;;12.00;99.90;;;;;;5005502;28;20049;-78
2023/08/30 03:55:48;;;;;;;17.45;14.05;;;12.10;99.90;;;;;;5000060;28;20033;-78
2023/08/30 03:58:13;;;;;;;19.90;12.45;;;12.20;99.90;;;;;;4984659;28;20036;-79
2023/08/30 04:00:39;;;;;;;17.75;14.63;;;12.20;99.90;;;;;;4987406;28;20038;-78
2023/08/30 04:03:08;;;;;;;15.25;12.25;;;12.30;99.90;;;;;;4986067;28;20083;-78
2023/08/30 04:05:34;;;;;;;23.40;19.40;;;12.20;99.90;;;;;;5000562;28;20104;-79
2023/08/30 04:08:02;;;;;;;16.13;13.00;;;12.20;99.90;;;;;;5005300;28;20076;-79
2023/08/30 04:10:27;;;;;;;17.20;13.98;;;12.20;99.90;;;;;;4986129;28;20582;-79
2023/08/30 04:12:53;;;;;;;21.23;16.50;;;12.20;99.90;;;;;;4986159;28;20122;-78
2023/08/30 04:15:18;;;;;;;28.58;20.73;;;12.20;99.90;;;;;;5000849;28;20037;-79
2023/08/30 04:17:44;;;;;;;27.60;20.42;;;12.10;99.90;;;;;;4984061;28;20037;-80
2023/08/30 04:20:10;;;;;;;23.42;17.45;;;11.90;99.90;;;;;;4982677;28;20026;-79
2023/08/30 04:22:36;;;;;;;28.73;19.13;;;12.00;99.90;;;;;;4986207;28;20502;-79
2023/08/30 04:25:02;;;;;;;23.83;16.90;;;12.00;99.90;;;;;;4967942;28;20113;-78
2023/08/30 04:27:27;;;;;;;22.33;15.50;;;12.00;99.90;;;;;;4987066;28;20025;-78
2023/08/30 04:29:53;;;;;;;20.83;16.25;;;11.90;99.90;;;;;;4972777;28;20024;-79
2023/08/30 04:32:18;;;;;;;29.88;21.65;;;12.00;99.90;;;;;;4980669;28;20452;-79
2023/08/30 04:34:44;;;;;;;32.70;23.50;;;11.80;99.90;;;;;;5000184;28;20060;-78
2023/08/30 04:37:09;;;;;;;33.33;21.52;;;11.70;99.90;;;;;;5003643;28;20025;-78
2023/08/30 04:39:35;;;;;;;34.50;23.75;;;11.70;99.90;;;;;;4999800;28;20393;-78
2023/08/30 04:42:02;;;;;;;16.40;14.05;;;11.70;99.90;;;;;;4985765;28;20489;-79
2023/08/30 04:44:28;;;;;;;22.38;17.73;;;11.80;99.90;;;;;;5000560;28;20025;-77
2023/08/30 04:46:54;;;;;;;19.50;15.25;;;11.80;99.90;;;;;;5017928;28;20030;-79
2023/08/30 04:49:19;;;;;;;28.17;20.60;;;11.80;99.90;;;;;;4987148;28;20033;-78
2023/08/30 04:51:45;;;;;;;22.77;17.58;;;11.80;99.90;;;;;;4999032;28;20083;-78
2023/08/30 04:54:11;;;;;;;30.38;21.75;;;11.70;99.90;;;;;;4999704;28;20033;-79
2023/08/30 04:56:36;;;;;;;34.28;23.08;;;11.60;99.90;;;;;;5002352;28;20109;-79
2023/08/30 04:59:03;;;;;;;30.67;23.33;;;11.60;99.90;;;;;;4985821;28;20096;-78
2023/08/30 05:01:29;;;;;;;33.63;23.95;;;11.60;99.90;;;;;;5001337;28;20025;-79
2023/08/30 05:03:55;;;;;;;33.83;23.48;;;11.60;99.90;;;;;;4981662;28;20108;-78
2023/08/30 05:06:21;;;;;;;34.30;21.77;;;11.50;99.90;;;;;;4968255;28;20124;-78
2023/08/30 05:08:46;;;;;;;30.20;21.95;;;11.50;99.90;;;;;;5012119;28;20080;-77
2023/08/30 05:11:12;;;;;;;36.25;24.90;;;11.50;99.90;;;;;;5012728;28;20045;-78
2023/08/30 05:13:37;;;;;;;26.98;19.10;;;11.60;99.90;;;;;;5002440;28;20029;-78
2023/08/30 05:16:03;;;;;;;35.80;23.73;;;11.60;99.90;;;;;;4982988;28;20449;-78
2023/08/30 05:18:29;;;;;;;21.27;16.55;;;11.60;99.90;;;;;;5001728;28;20428;-78
2023/08/30 05:20:54;;;;;;;27.88;21.05;;;11.70;99.90;;;;;;4997292;28;20193;-79
2023/08/30 05:23:20;;;;;;;31.42;22.88;;;11.60;99.90;;;;;;5000307;28;20112;-78
2023/08/30 05:25:46;;;;;;;28.35;20.27;;;11.60;99.90;;;;;;4982379;28;20313;-78
2023/08/30 05:28:12;;;;;;;39.58;25.48;;;11.60;99.90;;;;;;4983631;28;20026;-78
2023/08/30 05:30:41;;;;;;;36.78;25.70;;;11.60;99.90;;;;;;4969167;28;20151;-79
2023/08/30 05:33:06;;;;;;;29.85;22.40;;;11.60;99.90;;;;;;4982934;28;20037;-80
2023/08/30 05:35:33;;;;;;;30.42;18.77;;;11.70;99.90;;;;;;5001748;28;20398;-78
2023/08/30 05:37:58;;;;;;;29.48;21.85;;;11.80;99.90;;;;;;4978915;28;20449;-78
2023/08/30 05:40:24;;;;;;;16.23;12.55;;;11.80;99.90;;;;;;4983652;28;20111;-77
2023/08/30 05:42:50;;;;;;;29.48;21.55;;;12.00;99.90;;;;;;4996662;28;20040;-77
2023/08/30 05:45:15;;;;;;;17.00;11.80;;;12.20;99.90;;;;;;5017401;28;20029;-77
2023/08/30 05:47:41;;;;;;;27.38;20.42;;;12.20;99.90;;;;;;4996896;28;20087;-78
2023/08/30 05:50:07;;;;;;;25.23;19.73;;;12.20;99.90;;;;;;4981908;28;20048;-77
2023/08/30 05:52:33;;;;;;;13.43;11.02;;;12.20;99.90;;;;;;4985388;28;20032;-77
2023/08/30 05:54:58;;;;;;;24.80;18.08;;;12.20;99.90;;;;;;4994245;28;20038;-78
2023/08/30 05:57:25;;;;;;;26.17;18.83;;;12.30;99.90;;;;;;4980499;28;20036;-77
2023/08/30 05:59:50;;;;;;;30.33;22.17;;;12.50;99.90;;;;;;4982736;28;20641;-77
2023/08/30 06:02:16;;;;;;;25.00;18.25;;;12.40;99.90;;;;;;4986309;28;20029;-79
2023/08/30 06:04:42;;;;;;;28.58;22.58;;;12.50;99.90;;;;;;4999691;28;20037;-76
2023/08/30 06:07:08;;;;;;;33.25;23.27;;;12.70;99.90;;;;;;4986052;28;20120;-76
2023/08/30 06:09:33;;;;;;;19.70;15.45;;;12.70;99.90;;;;;;4987135;28;20037;-77
2023/08/30 06:11:59;;;;;;;23.90;18.77;;;12.80;99.90;;;;;;5002362;28;20025;-78
2023/08/30 06:14:24;;;;;;;27.40;18.02;;;12.80;99.90;;;;;;4985682;28;20041;-78
2023/08/30 06:16:50;;;;;;;18.83;12.70;;;12.90;99.90;;;;;;4968423;28;20026;-77
2023/08/30 06:19:15;;;;;;;24.33;18.73;;;13.00;99.90;;;;;;4987068;28;20394;-78
2023/08/30 06:21:41;;;;;;;20.08;15.70;;;13.10;99.90;;;;;;4973422;28;20425;-77
2023/08/30 06:24:07;;;;;;;25.45;19.70;;;13.20;99.90;;;;;;4982820;28;20112;-78
2023/08/30 06:26:32;;;;;;;27.00;19.40;;;13.30;99.90;;;;;;4998372;28;20080;-77
2023/08/30 06:28:58;;;;;;;16.95;14.85;;;13.30;99.90;;;;;;4982155;28;20022;-77
2023/08/30 06:31:24;;;;;;;31.85;19.55;;;13.40;99.90;;;;;;4983655;28;20345;-78
2023/08/30 06:33:50;;;;;;;29.55;21.88;;;13.40;99.90;;;;;;4983914;28;20073;-78
2023/08/30 06:36:17;;;;;;;23.50;16.52;;;13.50;99.90;;;;;;4988671;28;20363;-77
2023/08/30 06:38:43;;;;;;;20.30;16.17;;;13.60;99.90;;;;;;4990821;28;20030;-78
2023/08/30 06:41:08;;;;;;;27.60;19.25;;;13.70;99.90;;;;;;4989539;28;20444;-78
2023/08/30 06:43:34;;;;;;;35.08;22.45;;;13.90;99.90;;;;;;5002196;28;20045;-78
2023/08/30 06:46:00;;;;;;;38.20;26.92;;;13.90;99.90;;;;;;5002849;28;20107;-78
2023/08/30 06:48:25;;;;;;;28.80;19.05;;;14.10;99.90;;;;;;5006387;28;20515;-78
2023/08/30 06:50:51;;;;;;;24.50;15.88;;;14.10;99.90;;;;;;4989294;28;20030;-78
2023/08/30 06:53:17;;;;;;;30.02;22.90;;;14.20;99.90;;;;;;4986772;28;20184;-78
2023/08/30 06:55:42;;;;;;;21.25;15.27;;;14.40;99.90;;;;;;5004027;28;20473;-78
2023/08/30 06:58:08;;;;;;;25.55;16.95;;;14.40;99.90;;;;;;4998956;28;20038;-77
2023/08/30 07:00:33;;;;;;;25.15;20.85;;;14.60;99.90;;;;;;4974151;28;20041;-76
2023/08/30 07:02:59;;;;;;;31.30;24.50;;;14.70;99.90;;;;;;4988045;28;20025;-77
2023/08/30 07:05:24;;;;;;;22.25;16.90;;;14.80;99.90;;;;;;5003675;28;20129;-78
2023/08/30 07:07:50;;;;;;;26.58;17.90;;;15.00;99.90;;;;;;4988260;28;20039;-77
2023/08/30 07:10:16;;;;;;;25.33;17.02;;;15.10;99.90;;;;;;4988229;28;20393;-77
2023/08/30 07:12:41;;;;;;;22.08;17.42;;;15.20;99.90;;;;;;5004730;28;21493;-78
2023/08/30 07:15:07;;;;;;;28.55;20.67;;;15.30;99.90;;;;;;5000415;28;20108;-78
2023/08/30 07:17:33;;;;;;;19.67;14.88;;;15.40;99.90;;;;;;4999982;28;20038;-77
2023/08/30 07:19:58;;;;;;;18.35;13.93;;;15.50;99.90;;;;;;4984470;28;20044;-77
2023/08/30 07:22:24;;;;;;;20.60;16.58;;;15.60;99.90;;;;;;5002420;28;20109;-78
2023/08/30 07:24:51;;;;;;;23.48;18.65;;;15.80;99.90;;;;;;5004564;28;20446;-77
2023/08/30 07:27:16;;;;;;;16.80;14.20;;;15.90;99.90;;;;;;4987057;28;20052;-76
2023/08/30 07:29:43;;;;;;;21.17;15.77;;;16.10;99.90;;;;;;4985875;28;20026;-76
2023/08/30 07:32:09;;;;;;;16.77;14.45;;;16.20;99.90;;;;;;4999114;28;20092;-75
2023/08/30 07:34:34;;;;;;;16.23;12.60;;;16.40;99.90;;;;;;4986765;28;20038;-79
2023/08/30 07:37:00;;;;;;;21.40;14.48;;;16.50;99.90;;;;;;5000729;28;20040;-77
2023/08/30 07:39:26;;;;;;;18.10;12.77;;;16.70;99.90;;;;;;4971387;28;20041;-77
2023/08/30 07:41:51;;;;;;;13.98;11.40;;;16.90;99.90;;;;;;4985383;28;20076;-77
2023/08/30 07:44:17;;;;;;;13.55;9.25;;;17.00;99.90;;;;;;4977192;28;20421;-76
2023/08/30 07:46:43;;;;;;;14.77;10.68;;;17.10;99.90;;;;;;4984330;28;20058;-76
2023/08/30 07:49:08;;;;;;;14.63;10.75;;;17.30;99.90;;;;;;5002507;28;20080;-77
2023/08/30 07:51:34;;;;;;;11.52;10.00;;;17.40;99.90;;;;;;4998203;28;20092;-77
2023/08/30 07:53:59;;;;;;;13.93;10.00;;;17.50;99.90;;;;;;5005058;28;20025;-77
2023/08/30 07:56:25;;;;;;;18.27;10.35;;;17.60;99.90;;;;;;4997073;28;20137;-76
2023/08/30 07:58:51;;;;;;;11.77;8.63;;;17.80;99.90;;;;;;5003017;28;20036;-77
2023/08/30 08:01:17;;;;;;;13.20;8.52;;;18.00;99.90;;;;;;4985036;28;20053;-76
2023/08/30 08:03:42;;;;;;;10.77;7.47;;;18.10;99.90;;;;;;4985410;28;20033;-76
2023/08/30 08:06:08;;;;;;;13.85;6.82;;;18.20;99.90;;;;;;4980828;28;20057;-77
2023/08/30 08:08:33;;;;;;;10.50;8.20;;;18.20;99.90;;;;;;4986410;28;20041;-76
2023/08/30 08:10:59;;;;;;;9.43;7.00;;;18.30;99.90;;;;;;4988358;28;20061;-77
2023/08/30 08:13:25;;;;;;;9.77;6.80;;;18.50;99.90;;;;;;4971735;28;20069;-77
2023/08/30 08:15:51;;;;;;;8.93;6.88;;;18.70;99.90;;;;;;4990790;28;20034;-76
2023/08/30 08:18:16;;;;;;;7.47;5.72;;;18.80;99.60;;;;;;5002210;28;20108;-75
2023/08/30 08:20:42;;;;;;;9.00;5.35;;;18.90;99.80;;;;;;5003592;28;20128;-76
2023/08/30 08:23:08;;;;;;;8.20;5.57;;;19.10;99.20;;;;;;5005991;28;20029;-76
2023/08/30 08:25:34;;;;;;;13.43;5.63;;;19.20;99.10;;;;;;5002057;28;20034;-76
2023/08/30 08:27:59;;;;;;;9.00;4.70;;;19.30;98.20;;;;;;4987966;28;20492;-76
2023/08/30 08:30:25;;;;;;;7.07;5.53;;;19.40;98.20;;;;;;4987216;28;20464;-75
2023/08/30 08:32:50;;;;;;;5.75;4.15;;;19.70;97.10;;;;;;4990280;28;20555;-75
2023/08/30 08:35:16;;;;;;;10.82;4.85;;;19.80;97.90;;;;;;4987211;28;20033;-75
2023/08/30 08:37:41;;;;;;;5.78;4.13;;;19.90;96.20;;;;;;4989481;28;20029;-75
2023/08/30 08:40:10;;;;;;;7.75;3.55;;;20.10;96.30;;;;;;5003308;28;20037;-76
2023/08/30 08:42:36;;;;;;;4.40;3.38;;;20.30;95.70;;;;;;4968275;28;20058;-76
2023/08/30 08:45:03;;;;;;;6.68;4.15;;;20.30;94.10;;;;;;4987396;28;20080;-77
2023/08/30 08:47:31;;;;;;;8.10;5.63;;;20.40;94.40;;;;;;4974192;28;20459;-75
2023/08/30 08:49:57;;;;;;;7.07;3.85;;;20.60;94.20;;;;;;4989091;28;20540;-76
2023/08/30 08:52:26;;;;;;;5.57;3.58;;;20.60;93.60;;;;;;5004870;28;20073;-77
2023/08/30 08:54:51;;;;;;;6.63;4.63;;;20.90;94.30;;;;;;4986774;28;20045;-77
2023/08/30 08:57:19;;;;;;;4.25;3.15;;;21.00;93.60;;;;;;5002599;28;20025;-77
2023/08/30 08:59:45;;;;;;;8.02;4.22;;;20.70;94.10;;;;;;4981111;28;20501;-76
2023/08/30 09:02:12;;;;;;;5.32;3.55;;;20.70;93.40;;;;;;4969816;28;20056;-76
2023/08/30 09:04:39;;;;;;;5.72;2.72;;;20.90;94.60;;;;;;4985844;28;20030;-76
2023/08/30 09:07:04;;;;;;;5.70;3.72;;;21.30;94.30;;;;;;4988925;28;20109;-77
2023/08/30 09:09:30;;;;;;;11.73;4.40;;;21.50;94.90;;;;;;5002857;28;20140;-76
2023/08/30 09:11:56;;;;;;;5.80;3.33;;;21.80;93.10;;;;;;5002820;28;20072;-77
2023/08/30 09:14:21;;;;;;;5.88;4.05;;;21.80;92.90;;;;;;4986667;28;20041;-76
2023/08/30 09:17:00;;;;;;;5.07;2.33;;;21.80;93.70;;;;;;4982021;28;20035;-76
2023/08/30 09:19:26;;;;;;;9.02;3.95;;;22.00;91.80;;;;;;4988226;28;20458;-76
2023/08/30 09:21:58;;;;;;;7.63;4.13;;;21.70;91.50;;;;;;4980984;28;20043;-76
2023/08/30 09:24:23;;;;;;;4.80;2.63;;;21.50;91.60;;;;;;4989732;28;20057;-76
2023/08/30 09:26:53;;;;;;;3.08;2.65;;;21.50;91.50;;;;;;4984668;28;20552;-77
2023/08/30 09:29:19;;;;;;;5.47;3.85;;;21.80;91.10;;;;;;4967359;28;20087;-76
2023/08/30 09:31:45;;;;;;;7.30;3.85;;;22.00;91.00;;;;;;4987270;28;20045;-76
2023/08/30 09:34:11;;;;;;;6.22;3.58;;;21.90;91.60;;;;;;4986016;28;20099;-77
2023/08/30 09:36:38;;;;;;;9.20;4.03;;;22.00;91.20;;;;;;4986290;28;20030;-76
2023/08/30 09:39:14;;;;;;;5.38;2.97;;;21.70;91.00;;;;;;5003890;28;20065;-77
2023/08/30 09:41:43;;;;;;;;;;;21.80;90.90;;;;;;4986301;28;20116;-77
2023/08/30 09:44:24;;;;;;;7.03;3.72;;;22.30;92.20;;;;;;5002917;28;19913;-76
2023/08/30 09:46:53;;;;;;;5.28;3.03;;;22.30;90.60;;;;;;4969312;28;20025;-77
2023/08/30 09:49:21;;;;;;;4.78;3.83;;;22.50;92.10;;;;;;4984347;28;20030;-77
2023/08/30 09:51:47;;;;;;;4.80;3.40;;;22.20;91.10;;;;;;4984698;28;20049;-76
2023/08/30 09:54:17;;;;;;;4.85;2.90;;;22.40;93.80;;;;;;4972271;28;20029;-77
2023/08/30 09:56:45;;;;;;;2.95;2.17;;;22.10;91.90;;;;;;4983407;28;20486;-77
2023/08/30 09:59:11;;;;;;;5.93;3.55;;;21.70;92.50;;;;;;4986954;28;20405;-76
2023/08/30 10:01:38;;;;;;;3.75;3.05;;;21.40;93.40;;;;;;4970449;28;20022;-77
2023/08/30 10:04:04;;;;;;;6.82;5.05;;;21.20;93.40;;;;;;4979297;28;20029;-77
2023/08/30 10:06:29;;;;;;;4.80;3.10;;;21.00;94.30;;;;;;4985283;28;20040;-76
2023/08/30 10:08:55;;;;;;;5.50;3.55;;;20.50;94.60;;;;;;4984105;28;20513;-77
2023/08/30 10:11:21;;;;;;;5.03;3.65;;;20.00;95.20;;;;;;4999119;28;20485;-77
2023/08/30 10:13:46;;;;;;;8.82;4.05;;;19.80;95.70;;;;;;4292550;28;10000323;-76
2023/08/30 10:16:15;;;;;;;4.15;3.40;;;19.90;95.70;;;;;;4969493;28;20052;-77
2023/08/30 10:18:40;;;;;;;10.52;4.70;;;19.60;96.20;;;;;;4983414;28;20048;-77
2023/08/30 10:21:08;;;;;;;8.57;3.90;;;19.50;96.60;;;;;;4982120;28;20117;-77
2023/08/30 10:23:34;;;;;;;6.57;4.40;;;19.50;96.50;;;;;;4970087;28;20068;-78
2023/08/30 10:25:59;;;;;;;7.22;5.10;;;19.30;96.70;;;;;;4966897;28;20041;-78
2023/08/30 10:28:25;;;;;;;5.20;3.47;;;19.20;97.10;;;;;;4978375;28;20038;-77
2023/08/30 10:30:51;;;;;;;5.90;3.50;;;19.20;97.10;;;;;;5000770;28;20387;-78
2023/08/30 10:33:18;;;;;;;9.15;4.45;;;19.00;97.70;;;;;;4993222;28;20085;-77
2023/08/30 10:35:51;;;;;;;6.43;3.95;;;18.90;97.90;;;;;;4984905;28;20036;-77
2023/08/30 10:38:27;;;;;;;5.05;4.15;;;18.90;97.70;;;;;;4973320;28;20073;-78
2023/08/30 10:40:53;;;;;;;6.70;4.20;;;18.80;98.40;;;;;;4981456;28;20038;-77
2023/08/30 10:43:28;;;;;;;6.00;4.47;;;18.70;98.70;;;;;;4966778;28;20037;-78
2023/08/30 10:46:04;;;;;;;6.15;4.93;;;18.60;99.10;;;;;;4976841;28;20629;-77
2023/08/30 10:48:35;;;;;;;;;;;18.40;99.50;;;;;;4987203;28;20096;-78
2023/08/30 10:51:04;;;;;;;7.97;4.13;;;18.40;99.50;;;;;;5004047;28;19924;-78
2023/08/30 10:53:30;;;;;;;5.60;4.80;;;18.30;99.80;;;;;;4983413;28;20030;-78
2023/08/30 10:56:11;;;;;;;6.82;5.30;;;18.30;99.90;;;;;;4998219;28;20092;-77
2023/08/30 10:58:43;;;;;;;5.55;4.40;;;18.20;99.90;;;;;;4987353;28;20041;-78
2023/08/30 11:01:10;;;;;;;7.03;5.15;;;18.20;99.80;;;;;;4983399;28;20540;-77
2023/08/30 11:03:36;;;;;;;7.30;6.45;;;18.20;99.60;;;;;;4979717;28;20022;-77
2023/08/30 11:06:02;;;;;;;5.55;4.80;;;18.20;99.30;;;;;;4999950;28;20037;-77
2023/08/30 11:08:28;;;;;;;10.77;6.30;;;18.10;99.90;;;;;;4998970;28;20032;-78
2023/08/30 11:11:04;;;;;;;8.60;5.80;;;18.00;99.90;;;;;;4983970;28;20412;-78
2023/08/30 11:13:30;;;;;;;6.80;5.15;;;18.00;99.90;;;;;;4980170;28;20030;-78
2023/08/30 11:16:03;;;;;;;7.03;5.13;;;17.90;99.80;;;;;;4986816;28;20029;-78
2023/08/30 11:18:30;;;;;;;9.90;7.25;;;17.80;99.40;;;;;;4984910;28;20083;-78
2023/08/30 11:21:00;;;;;;;7.00;6.22;;;17.70;99.60;;;;;;5000694;28;20069;-78
2023/08/30 11:23:25;;;;;;;5.63;4.20;;;17.60;99.90;;;;;;4987313;28;20033;-77
2023/08/30 11:25:51;;;;;;;6.75;4.95;;;17.50;99.90;;;;;;5001211;28;20041;-78
2023/08/30 11:28:23;;;;;;;6.13;3.90;;;17.40;99.90;;;;;;4981752;28;20528;-78
2023/08/30 11:30:49;;;;;;;6.10;4.72;;;17.30;99.90;;;;;;4974237;28;20068;-78
2023/08/30 11:33:18;;;;;;;6.07;5.20;;;17.30;99.90;;;;;;4989369;28;20053;-76
2023/08/30 11:35:44;;;;;;;5.72;3.97;;;17.30;99.90;;;;;;4988682;28;20026;-77
2023/08/30 11:38:10;;;;;;;4.05;3.22;;;17.20;99.90;;;;;;4985653;28;20119;-77
2023/08/30 11:40:35;;;;;;;4.43;3.35;;;17.10;99.90;;;;;;5003005;28;20083;-76
2023/08/30 11:43:02;;;;;;;4.35;2.40;;;17.00;99.90;;;;;;5001668;28;20608;-78
2023/08/30 11:45:31;;;;;;;4.32;3.13;;;17.00;99.90;;;;;;5017500;28;20109;-78
2023/08/30 11:47:58;;;;;;;4.97;2.90;;;17.00;99.90;;;;;;4974409;28;20460;-77
2023/08/30 11:50:23;;;;;;;4.57;2.42;;;17.00;99.90;;;;;;4971235;28;20042;-77
2023/08/30 11:52:50;;;;;;;2.47;2.28;;;17.00;99.90;;;;;;4988620;28;20041;-78
2023/08/30 11:55:15;;;;;;;3.13;2.33;;;16.90;99.90;;;;;;4974472;28;20497;-78
2023/08/30 11:57:43;;;;;;;2.70;2.10;;;17.00;99.90;;;;;;5005409;28;20411;-78
2023/08/30 12:00:12;;;;;;;3.17;2.47;;;17.00;99.90;;;;;;5005620;28;20062;-79
2023/08/30 12:02:39;;;;;;;3.88;2.60;;;17.00;99.90;;;;;;4987115;28;20382;-78
2023/08/30 12:05:05;;;;;;;4.20;2.03;;;16.90;99.90;;;;;;5004320;28;20034;-78
2023/08/30 12:07:31;;;;;;;3.25;2.28;;;16.90;99.90;;;;;;5018417;28;20040;-78
2023/08/30 12:10:12;;;;;;;3.28;2.20;;;16.90;99.90;;;;;;5002108;28;20034;-78
2023/08/30 12:12:37;;;;;;;2.35;2.15;;;16.80;99.90;;;;;;4990837;28;20057;-78
2023/08/30 12:15:13;;;;;;;2.80;2.30;;;16.80;99.90;;;;;;4985195;28;20097;-78
2023/08/30 12:17:39;;;;;;;;;;;16.90;99.90;;;;;;4986086;28;20386;-79
2023/08/30 12:20:05;;;;;;;2.27;1.97;;;16.80;99.90;;;;;;5016752;28;20411;-78
2023/08/30 12:22:40;;;;;;;3.63;3.25;;;16.90;99.90;;;;;;5002062;28;20120;-79
2023/08/30 12:25:26;;;;;;;4.27;2.83;;;16.80;99.90;;;;;;4984925;28;20481;-79
2023/08/30 12:27:52;;;;;;;3.55;2.35;;;16.80;99.90;;;;;;5001206;28;20393;-78
2023/08/30 12:30:18;;;;;;;5.50;2.22;;;16.70;99.90;;;;;;4972734;28;20084;-78
2023/08/30 12:32:47;;;;;;;3.85;2.60;;;16.70;99.90;;;;;;5003624;28;20061;-78
2023/08/30 12:35:15;;;;;;;2.85;2.22;;;16.60;99.90;;;;;;4981650;28;20120;-78